Time;durP1;ratioP1;P1;durP2;ratioP2;P2;SDS_P1;SDS_P2;PMS_P1;PMS_P2;Temp;Humidity;BMP_temperature;BMP_pressure;BME280_temperature;BME280_humidity;BME280_pressure;Samples;Min_cycle;Max_cycle;Signal;HPM_P1;HPM_P2
2022/12/16 00:00:25;;;;;;;56.95;28.27;;;;;;;;;;5070977;28;20401;-88
2022/12/16 00:02:52;;;;;;;58.85;30.15;;;;;;;;;;5060456;28;20227;-88
2022/12/16 00:05:19;;;;;;;52.40;25.40;;;;;;;;;;5078092;28;20203;-87
2022/12/16 00:07:47;;;;;;;50.30;27.63;;;;;;;;;;5080655;28;20209;-87
2022/12/16 00:10:14;;;;;;;50.60;27.70;;;;;;;;;;5080785;28;20204;-87
2022/12/16 00:12:42;;;;;;;49.40;29.10;;;-5.80;1.00;;;;;;5080923;28;20283;-86
2022/12/16 00:15:09;;;;;;;39.95;23.83;;;-5.70;1.00;;;;;;5080810;28;20187;-86
2022/12/16 00:17:38;;;;;;;55.25;27.50;;;;;;;;;;5080749;28;20187;-87
2022/12/16 00:20:06;;;;;;;47.83;25.20;;;-5.80;99.90;;;;;;5080608;28;20223;-86
2022/12/16 00:22:33;;;;;;;59.85;28.67;;;-5.70;99.90;;;;;;5080854;28;20180;-87
2022/12/16 00:25:00;;;;;;;48.08;27.55;;;;;;;;;;5080805;28;20199;-87
2022/12/16 00:27:26;;;;;;;43.35;27.58;;;-5.80;99.90;;;;;;5080652;28;20203;-86
2022/12/16 00:29:55;;;;;;;48.90;27.25;;;-5.40;99.90;;;;;;5080696;28;20207;-87
2022/12/16 00:32:21;;;;;;;51.05;28.40;;;-5.50;99.90;;;;;;5080157;28;20219;-87
2022/12/16 00:34:48;;;;;;;41.10;27.38;;;-5.50;1.00;;;;;;5080472;28;20191;-86
2022/12/16 00:37:15;;;;;;;56.08;29.02;;;-5.00;1.00;;;;;;5080693;28;20203;-87
2022/12/16 00:39:42;;;;;;;50.90;28.20;;;;;;;;;;5080350;28;20223;-86
2022/12/16 00:42:09;;;;;;;56.97;28.38;;;;;;;;;;5080508;28;20213;-86
2022/12/16 00:44:37;;;;;;;42.35;25.25;;;;;;;;;;5080473;28;20243;-86
2022/12/16 00:47:05;;;;;;;42.38;26.38;;;-5.90;1.00;;;;;;5080440;28;20206;-86
2022/12/16 00:49:32;;;;;;;52.90;27.15;;;-6.00;33.20;;;;;;5077530;28;20258;-87
2022/12/16 00:51:59;;;;;;;57.08;28.17;;;;;;;;;;5069556;28;20291;-87
2022/12/16 00:54:26;;;;;;;45.75;26.23;;;-6.10;1.00;;;;;;5061026;28;20580;-87
2022/12/16 00:56:53;;;;;;;43.35;26.75;;;;;;;;;;5057418;28;20203;-88
2022/12/16 00:59:20;;;;;;;45.25;28.17;;;;;;;;;;5057106;28;20223;-87
2022/12/16 01:01:47;;;;;;;57.60;27.48;;;-5.90;1.00;;;;;;5058102;28;20563;-88
2022/12/16 01:04:16;;;;;;;51.38;29.60;;;-6.00;1.00;;;;;;5059642;28;20213;-88
2022/12/16 01:06:43;;;;;;;50.00;28.90;;;;;;;;;;5075515;28;20238;-87
2022/12/16 01:09:10;;;;;;;43.03;23.73;;;;;;;;;;5068555;28;20231;-87
2022/12/16 01:11:37;;;;;;;44.78;25.00;;;-6.50;29.80;;;;;;5057777;28;20310;-88
2022/12/16 01:14:04;;;;;;;50.55;27.45;;;;;;;;;;5057938;28;20235;-87
2022/12/16 01:16:31;;;;;;;56.28;27.92;;;-6.00;1.00;;;;;;5059583;28;20637;-87
2022/12/16 01:18:58;;;;;;;43.67;26.75;;;;;;;;;;5057420;28;20314;-88
2022/12/16 01:21:26;;;;;;;48.47;24.95;;;-6.00;99.90;;;;;;5056360;28;20231;-88
2022/12/16 01:23:53;;;;;;;42.65;25.00;;;-5.90;99.90;;;;;;5056284;28;20209;-87
2022/12/16 01:26:20;;;;;;;49.50;25.13;;;;;;;;;;5055744;28;20572;-88
2022/12/16 01:28:48;;;;;;;47.35;26.17;;;-6.00;1.00;;;;;;5056042;28;20219;-88
2022/12/16 01:31:17;;;;;;;43.28;24.83;;;-5.90;1.00;;;;;;5058078;28;20207;-88
2022/12/16 01:33:44;;;;;;;41.75;24.42;;;-5.80;1.00;;;;;;5055780;28;20233;-87
2022/12/16 01:36:11;;;;;;;46.33;25.50;;;;;;;;;;5055903;28;20209;-88
2022/12/16 01:38:43;;;;;;;42.00;24.02;;;-5.90;1.00;;;;;;5055206;28;20245;-88
2022/12/16 01:41:13;;;;;;;46.10;24.75;;;-6.00;1.00;;;;;;5055102;28;20624;-88
2022/12/16 01:43:41;;;;;;;51.75;24.70;;;-5.90;1.00;;;;;;5055108;28;20553;-88
2022/12/16 01:46:14;;;;;;;43.97;25.38;;;-5.90;1.00;;;;;;5057158;28;20213;-86
2022/12/16 01:48:46;;;;;;;49.53;24.23;;;-5.90;99.90;;;;;;5058359;28;20197;-86
2022/12/16 01:51:18;;;;;;;38.47;24.05;;;-5.90;1.00;;;;;;5061151;28;20278;-85
2022/12/16 01:53:49;;;;;;;46.10;25.67;;;-6.10;1.00;;;;;;5071300;28;20225;-85
2022/12/16 01:56:19;;;;;;;43.72;24.83;;;-5.90;1.00;;;;;;5076743;28;20199;-85
2022/12/16 01:58:46;;;;;;;38.75;23.83;;;;;;;;;;5067185;28;20290;-86
2022/12/16 02:01:16;;;;;;;45.25;24.25;;;-6.10;1.00;;;;;;5062428;28;20199;-85
2022/12/16 02:03:43;;;;;;;34.25;21.13;;;;;;;;;;5063734;28;20199;-85
2022/12/16 02:06:10;;;;;;;41.72;24.02;;;;;;;;;;5064114;28;20284;-85
2022/12/16 02:08:37;;;;;;;44.67;24.23;;;;;;;;;;5065290;28;20286;-85
2022/12/16 02:11:18;;;;;;;40.60;23.15;;;-6.10;1.00;;;;;;5064688;28;20235;-85
2022/12/16 02:13:59;;;;;;;38.15;21.13;;;-6.10;1.00;;;;;;5065447;28;20242;-86
2022/12/16 02:16:32;;;;;;;42.58;22.17;;;-6.30;99.90;;;;;;5066931;28;20184;-85
2022/12/16 02:19:09;;;;;;;40.45;24.60;;;-6.00;1.00;;;;;;5076811;28;20736;-84
2022/12/16 02:21:48;;;;;;;45.40;22.77;;;-5.60;1.00;;;;;;5077884;28;20206;-84
2022/12/16 02:24:43;;;;;;;43.00;22.90;;;-6.20;99.90;;;;;;5078531;28;20194;-85
2022/12/16 02:27:46;;;;;;;41.03;23.23;;;-6.50;86.20;;;;;;5078634;28;20202;-85
2022/12/16 02:30:56;;;;;;;36.47;20.70;;;-6.40;99.90;;;;;;5078375;28;20226;-85
2022/12/16 02:34:20;;;;;;;37.72;20.58;;;-6.40;99.90;;;;;;5077038;28;20242;-85
2022/12/16 02:37:01;;;;;;;40.13;20.70;;;-6.30;1.00;;;;;;5056005;28;20685;-87
2022/12/16 02:39:35;;;;;;;40.88;22.10;;;-6.40;1.00;;;;;;5055840;28;20223;-86
2022/12/16 02:42:11;;;;;;;38.95;20.83;;;-6.30;99.90;;;;;;5054191;28;20187;-87
2022/12/16 02:44:48;;;;;;;36.13;22.42;;;-6.20;99.90;;;;;;5066577;28;20239;-86
2022/12/16 02:47:15;;;;;;;38.17;20.92;;;-6.50;99.90;;;;;;5078481;28;20183;-86
2022/12/16 02:49:47;;;;;;;45.20;21.90;;;-6.20;99.90;;;;;;5059069;28;20254;-87
2022/12/16 02:52:14;;;;;;;35.60;22.92;;;-6.40;99.90;;;;;;5054143;28;20584;-87
2022/12/16 02:54:42;;;;;;;54.05;22.90;;;-6.40;99.90;;;;;;5054872;28;20209;-87
2022/12/16 02:57:24;;;;;;;34.70;21.35;;;-6.10;99.90;;;;;;5053948;28;20210;-87
2022/12/16 03:00:01;;;;;;;43.20;20.88;;;-6.20;99.90;;;;;;5053985;28;20288;-86
2022/12/16 03:02:35;;;;;;;33.80;19.60;;;-6.20;99.90;;;;;;5054798;28;20187;-86
2022/12/16 03:05:09;;;;;;;35.45;21.90;;;-6.30;1.00;;;;;;5054526;28;20319;-87
2022/12/16 03:07:40;;;;;;;43.53;23.27;;;-6.30;1.00;;;;;;5053900;28;20255;-87
2022/12/16 03:10:12;;;;;;;33.55;21.15;;;-6.20;99.90;;;;;;5054202;28;20292;-87
2022/12/16 03:12:41;;;;;;;37.88;21.00;;;-6.40;99.90;;;;;;5054083;28;20223;-87
2022/12/16 03:15:13;;;;;;;42.55;22.25;;;-6.40;99.90;;;;;;5057258;28;20294;-87
2022/12/16 03:17:40;;;;;;;43.78;21.15;;;-6.00;1.00;;;;;;5057524;28;20276;-87
2022/12/16 03:20:26;;;;;;;38.92;22.33;;;-6.40;99.90;;;;;;5140523;22;20277;-86
2022/12/16 03:23:11;;;;;;;44.67;22.50;;;-6.60;99.90;;;;;;5140867;28;20241;-86
2022/12/16 03:25:46;;;;;;;37.42;20.30;;;-6.50;99.90;;;;;;5134005;28;20216;-86
2022/12/16 03:28:31;;;;;;;37.08;21.05;;;-6.60;99.90;;;;;;5130962;28;20236;-85
2022/12/16 03:31:15;;;;;;;32.78;20.58;;;-6.50;99.90;;;;;;5112114;28;20251;-85
2022/12/16 03:34:04;;;;;;;41.03;22.60;;;-6.50;99.90;;;;;;5105273;28;20193;-87
2022/12/16 03:36:45;;;;;;;38.95;19.55;;;-6.50;99.90;;;;;;5105349;28;20224;-86
2022/12/16 03:39:13;;;;;;;41.28;22.30;;;-6.60;99.90;;;;;;5104351;28;20217;-86
2022/12/16 03:41:44;;;;;;;43.53;23.75;;;;;;;;;;5105093;28;20209;-86
2022/12/16 03:44:12;;;;;;;42.15;21.98;;;;;;;;;;5104342;28;20217;-86
2022/12/16 03:46:40;;;;;;;43.92;22.77;;;;;;;;;;5102660;28;20717;-86
2022/12/16 03:49:13;;;;;;;36.78;21.80;;;;;;;;;;5109947;28;20226;-85
2022/12/16 03:51:45;;;;;;;35.78;21.15;;;;;;;;;;5117126;28;20174;-85
2022/12/16 03:54:17;;;;;;;46.60;24.20;;;;;;;;;;5116832;28;20217;-85
2022/12/16 03:56:47;;;;;;;40.60;22.70;;;;;;;;;;5117641;28;20213;-84
2022/12/16 03:59:23;;;;;;;47.22;22.48;;;;;;;;;;5115791;28;20217;-85
2022/12/16 04:02:00;;;;;;;37.05;21.90;;;;;;;;;;5114001;28;20178;-86
2022/12/16 04:04:28;;;;;;;37.60;20.35;;;;;;;;;;5114395;28;20219;-85
2022/12/16 04:09:51;;;;;;;45.67;23.35;;;;;;;;;;5103896;28;20267;-87
2022/12/16 04:27:48;;;;;;;43.75;23.92;;;-6.00;1.00;;;;;;5111163;28;20240;-86
